Airfield :
LOGIN :

Register | Disclaimer

   EN    FR    IT 

 










Legend :    VFR   Marginal VFR   IFR   Intensive IFR   Very Intensive IFR
Visi :
Ceiling :
>= 8 km
>= 3000ft
5 to 8 km
1000 to 3000 ft
1500m to 5 km
500 to 1000 ft
800 to 1500m
200 to 500 ft
< 800m
< 200 ft
Symbols :   Thunderstorms  Fog  Heavy snow  Heavy precipitations  Wind > 20 kt
SIGMETs :     Misc.  Thunderstorms  Icing  Turbulence  Mountain Waves  Volcanic Ashes







- Airport Elevation : 468 ft
- IATA code : GRO


LEGE - Girona Costa Brava

CURRENT METAR :
  • 230230Z 29002KT CAVOK 17/12 Q1020

EXPIRED METARs :
  • 230200Z 05004KT CAVOK 17/13 Q1020
  • 230130Z 00000KT CAVOK 17/12 Q1020
  • 230100Z 04003KT CAVOK 16/13 Q1020
  • 230030Z 27004KT CAVOK 18/13 Q1020

TAF TAF LEGE
Valid from the 23 at 00:00 until the 24 at 00:00 UTC


222300Z 2300/2324 VRB04KT 9999 FEW050 TX34/2313Z TN18/2305Z
BECMG 2311/2314 18010KT
BECMG 2318/2320 VRB04KT
No reported NOTAMs for that airfield.



MET'MAP, your aeronautical weather chart ! - Copyright ORBIFLY December 2007 - Disclaimer

ORBIFLY MET'MAP TEAM :

Programming & Development : Alexandra Zaïnal
Concept & Development : Baudouin d'Aumeries
Co-Development & Prog : Marc-Olivier Méhu
Technical & hardware support : Manuel Goepfert

Contact : metmap@orbifly.com




SOURCES & CREDITS :

   NOAA